createdAt,value
2023-02-19T00:02:10.014Z,10.40
2023-02-19T00:08:12.125Z,10.40
2023-02-19T00:14:17.987Z,10.40
2023-02-19T00:20:20.229Z,10.40
2023-02-19T00:26:22.923Z,10.40
2023-02-19T00:32:25.602Z,10.10
2023-02-19T00:38:28.116Z,9.90
2023-02-19T00:44:31.552Z,9.70
2023-02-19T00:50:34.050Z,9.60
2023-02-19T00:56:36.755Z,9.50
2023-02-19T01:02:39.147Z,9.30
2023-02-19T01:08:41.596Z,9.20
2023-02-19T01:14:43.987Z,9.10
2023-02-19T01:20:46.664Z,8.90
2023-02-19T01:26:48.913Z,8.80
2023-02-19T01:32:51.314Z,8.80
2023-02-19T01:38:54.593Z,8.60
2023-02-19T01:45:27.862Z,8.60
2023-02-19T01:51:32.201Z,8.50
2023-02-19T01:57:37.135Z,8.50
2023-02-19T02:03:42.127Z,8.40
2023-02-19T02:10:02.983Z,8.40
2023-02-19T02:16:40.883Z,8.30
2023-02-19T02:22:58.308Z,8.30
2023-02-19T02:29:00.552Z,8.30
2023-02-19T02:35:13.848Z,8.40
2023-02-19T02:41:16.851Z,8.40
2023-02-19T02:47:38.565Z,8.40
2023-02-19T02:54:10.649Z,8.50
2023-02-19T03:00:15.968Z,8.50
2023-02-19T03:06:21.447Z,8.50
2023-02-19T03:12:46.005Z,8.50
2023-02-19T03:19:31.313Z,8.60
2023-02-19T03:25:56.356Z,8.80
2023-02-19T03:32:14.431Z,8.80
2023-02-19T03:38:40.895Z,8.90
2023-02-19T03:45:20.164Z,8.90
2023-02-19T03:51:39.636Z,8.80
2023-02-19T03:57:50.408Z,8.80
2023-02-19T04:04:01.767Z,8.80
2023-02-19T04:10:07.964Z,8.70
2023-02-19T04:16:35.550Z,8.60
2023-02-19T04:22:39.060Z,8.60
2023-02-19T04:28:43.329Z,8.60
2023-02-19T04:34:45.745Z,8.60
2023-02-19T04:40:48.285Z,8.40
2023-02-19T04:46:50.642Z,8.20
2023-02-19T04:52:53.072Z,8.00
2023-02-19T04:58:56.004Z,8.10
2023-02-19T05:04:58.506Z,8.00
2023-02-19T05:11:02.938Z,8.10
2023-02-19T05:17:05.185Z,8.10
2023-02-19T05:23:07.370Z,8.20
2023-02-19T05:29:09.640Z,8.20
2023-02-19T05:35:11.920Z,8.30
2023-02-19T05:41:20.041Z,8.60
2023-02-19T05:47:22.389Z,10.80
2023-02-19T05:53:24.991Z,10.90
2023-02-19T05:59:27.936Z,10.90
2023-02-19T06:05:30.339Z,11.00
2023-02-19T06:11:33.188Z,12.00
2023-02-19T06:17:35.222Z,12.70
2023-02-19T06:23:38.140Z,12.20
2023-02-19T06:29:40.444Z,12.60
2023-02-19T06:35:42.842Z,13.10
2023-02-19T06:41:45.321Z,13.40
2023-02-19T06:47:47.447Z,14.20
2023-02-19T06:53:50.285Z,15.90
2023-02-19T06:59:52.545Z,16.10
2023-02-19T07:05:54.812Z,16.80
2023-02-19T07:11:57.282Z,17.70
2023-02-19T07:17:59.856Z,18.60
2023-02-19T07:24:02.087Z,17.50
2023-02-19T07:30:06.822Z,16.30
2023-02-19T07:36:09.773Z,15.90
2023-02-19T07:42:12.084Z,16.00
2023-02-19T07:48:14.366Z,19.70
2023-02-19T07:54:16.764Z,20.10
2023-02-19T08:00:20.297Z,20.30
2023-02-19T08:06:22.590Z,23.70
2023-02-19T08:12:43.323Z,28.20
2023-02-19T08:18:45.768Z,29.10
2023-02-19T08:24:48.024Z,27.30
2023-02-19T08:30:51.016Z,20.40
2023-02-19T08:36:53.473Z,19.10
2023-02-19T08:42:55.978Z,18.80
2023-02-19T08:48:58.292Z,20.20
2023-02-19T08:55:00.661Z,22.10
2023-02-19T09:01:03.274Z,20.30
2023-02-19T09:07:08.309Z,20.00
2023-02-19T09:13:11.037Z,21.10
2023-02-19T09:19:13.417Z,20.80
2023-02-19T09:25:15.730Z,20.10
2023-02-19T09:31:17.965Z,20.50
2023-02-19T09:37:19.936Z,19.10
2023-02-19T09:43:24.561Z,19.00
2023-02-19T09:49:37.824Z,19.30
2023-02-19T09:55:43.183Z,19.50
2023-02-19T10:01:48.033Z,19.40
2023-02-19T10:07:53.499Z,19.30
2023-02-19T10:14:11.260Z,19.70
2023-02-19T10:20:16.173Z,19.40
2023-02-19T10:26:19.205Z,19.30
2023-02-19T10:32:24.609Z,19.40
2023-02-19T10:38:32.065Z,19.40
2023-02-19T10:44:42.494Z,19.50
2023-02-19T10:50:48.315Z,20.10
2023-02-19T10:56:50.979Z,20.30
2023-02-19T11:03:15.317Z,20.20
2023-02-19T11:09:39.215Z,20.30
2023-02-19T11:15:42.119Z,20.10
2023-02-19T11:21:44.491Z,20.00
2023-02-19T11:27:58.842Z,19.60
2023-02-19T11:34:30.383Z,20.00
2023-02-19T11:40:42.121Z,20.70
2023-02-19T11:46:53.587Z,22.40
2023-02-19T11:53:01.691Z,23.30
2023-02-19T11:59:28.255Z,23.70
2023-02-19T12:05:30.205Z,24.40
2023-02-19T12:11:44.548Z,25.40
2023-02-19T12:17:58.761Z,26.10
2023-02-19T12:24:10.690Z,26.00
2023-02-19T12:30:28.621Z,23.80
2023-02-19T12:36:45.635Z,22.20
2023-02-19T12:43:11.157Z,23.70
2023-02-19T12:49:33.743Z,24.10
2023-02-19T12:55:44.848Z,20.50
2023-02-19T13:02:16.760Z,19.70
2023-02-19T13:09:05.349Z,19.40
2023-02-19T13:15:35.802Z,18.80
2023-02-19T13:21:57.378Z,19.20
2023-02-19T13:28:17.541Z,18.70
2023-02-19T13:34:44.415Z,20.30
2023-02-19T13:41:00.700Z,18.80
2023-02-19T13:47:06.426Z,17.90
2023-02-19T13:53:44.967Z,17.60
2023-02-19T13:59:48.629Z,17.40
2023-02-19T14:06:05.561Z,17.30
2023-02-19T14:12:10.920Z,17.10
2023-02-19T14:18:42.031Z,16.90
2023-02-19T14:24:44.151Z,16.80
2023-02-19T14:31:01.337Z,16.60
2023-02-19T14:37:07.223Z,16.50
2023-02-19T14:43:15.347Z,16.50
2023-02-19T14:50:05.894Z,16.40
2023-02-19T14:56:22.963Z,16.30
2023-02-19T15:02:26.594Z,16.30
2023-02-19T15:08:33.602Z,16.20
2023-02-19T15:14:35.956Z,16.10
2023-02-19T15:20:38.732Z,16.00
2023-02-19T15:26:43.066Z,16.00
2023-02-19T15:32:53.151Z,15.90
2023-02-19T15:38:57.655Z,15.90
2023-02-19T15:45:04.607Z,15.90
2023-02-19T15:51:14.010Z,16.00
2023-02-19T15:57:22.769Z,16.00
2023-02-19T16:03:27.198Z,15.90
2023-02-19T16:09:40.319Z,15.90
2023-02-19T16:15:44.277Z,15.80
2023-02-19T16:21:46.909Z,15.80
2023-02-19T16:27:49.258Z,15.80
2023-02-19T16:33:51.999Z,15.70
2023-02-19T16:40:09.374Z,15.70
2023-02-19T16:46:12.767Z,15.60
2023-02-19T16:52:17.314Z,15.50
2023-02-19T16:58:19.834Z,15.40
2023-02-19T17:04:22.308Z,15.30
2023-02-19T17:10:26.827Z,15.30
2023-02-19T17:16:32.385Z,15.20
2023-02-19T17:22:35.025Z,15.20
2023-02-19T17:28:37.485Z,15.10
2023-02-19T17:34:39.586Z,15.10
2023-02-19T17:40:41.784Z,15.00
2023-02-19T17:46:47.211Z,15.00
2023-02-19T17:52:49.436Z,14.90
2023-02-19T17:58:51.753Z,14.90
2023-02-19T18:04:54.116Z,14.80
2023-02-19T18:10:56.573Z,14.70
2023-02-19T18:16:58.912Z,14.60
2023-02-19T18:23:01.441Z,14.50
2023-02-19T18:29:05.779Z,14.40
2023-02-19T18:35:08.704Z,14.30
2023-02-19T18:41:14.660Z,14.30
2023-02-19T18:47:19.321Z,14.20
2023-02-19T18:53:21.732Z,14.20
2023-02-19T18:59:26.944Z,14.30
2023-02-19T19:05:29.660Z,14.20
2023-02-19T19:11:32.691Z,14.20
2023-02-19T19:17:37.173Z,14.10
2023-02-19T19:23:39.537Z,14.00
2023-02-19T19:29:42.113Z,13.90
2023-02-19T19:35:44.363Z,13.80
2023-02-19T19:41:46.581Z,13.80
2023-02-19T19:47:53.598Z,13.70
2023-02-19T19:53:56.090Z,13.60
2023-02-19T19:59:58.640Z,13.50
2023-02-19T20:06:01.419Z,13.40
2023-02-19T20:12:08.326Z,13.40
2023-02-19T20:18:11.040Z,13.20
2023-02-19T20:24:20.815Z,13.10
2023-02-19T20:30:25.342Z,12.90
2023-02-19T20:36:29.681Z,13.00
2023-02-19T20:42:32.652Z,13.10
2023-02-19T20:48:34.902Z,12.90
2023-02-19T20:54:38.877Z,12.80
2023-02-19T21:00:41.152Z,12.80
2023-02-19T21:06:43.451Z,12.80
2023-02-19T21:12:45.677Z,12.70
2023-02-19T21:18:48.228Z,12.60
2023-02-19T21:24:52.313Z,12.50
2023-02-19T21:30:54.777Z,12.40
2023-02-19T21:36:57.219Z,12.30
2023-02-19T21:42:59.388Z,12.10
2023-02-19T21:49:02.571Z,12.10
2023-02-19T21:55:05.082Z,12.00
2023-02-19T22:01:07.400Z,11.90
2023-02-19T22:07:09.552Z,11.80
2023-02-19T22:13:11.952Z,11.70
2023-02-19T22:19:14.245Z,11.50
2023-02-19T22:25:16.428Z,11.50
2023-02-19T22:31:21.305Z,11.50
2023-02-19T22:37:23.586Z,11.40
2023-02-19T22:43:25.766Z,11.20
2023-02-19T22:49:28.018Z,11.10
2023-02-19T22:55:31.221Z,11.00
2023-02-19T23:01:33.298Z,10.90
2023-02-19T23:07:35.404Z,10.80
2023-02-19T23:13:37.668Z,10.70
2023-02-19T23:19:40.303Z,10.60
2023-02-19T23:25:42.627Z,10.40
2023-02-19T23:31:44.990Z,10.30
2023-02-19T23:37:47.869Z,10.20
2023-02-19T23:43:49.786Z,10.10
2023-02-19T23:49:51.933Z,10.10
2023-02-19T23:55:53.964Z,10.10
